createdAt,value
2019-02-05T00:00:20.017Z,-1.60
2019-02-05T00:02:48.730Z,-1.60
2019-02-05T00:05:17.168Z,-1.70
2019-02-05T00:07:45.894Z,-1.70
2019-02-05T00:10:14.412Z,-1.70
2019-02-05T00:12:43.281Z,-1.70
2019-02-05T00:15:11.788Z,-1.80
2019-02-05T00:17:40.209Z,-1.60
2019-02-05T00:20:09.242Z,-1.60
2019-02-05T00:22:37.665Z,-1.60
2019-02-05T00:25:06.705Z,-1.60
2019-02-05T00:27:35.125Z,-1.60
2019-02-05T00:30:05.137Z,-1.80
2019-02-05T00:32:33.886Z,-1.80
2019-02-05T00:35:03.186Z,-1.90
2019-02-05T00:37:31.977Z,-1.90
2019-02-05T00:40:00.740Z,-1.90
2019-02-05T00:42:29.234Z,-1.90
2019-02-05T00:44:58.038Z,-2.00
2019-02-05T00:47:26.822Z,-2.00
2019-02-05T00:49:55.537Z,-2.00
2019-02-05T00:52:23.966Z,-2.00
2019-02-05T00:54:52.410Z,-2.00
2019-02-05T00:57:20.905Z,-2.00
2019-02-05T00:59:49.348Z,-1.90
2019-02-05T01:02:17.842Z,-1.90
2019-02-05T01:04:46.289Z,-1.90
2019-02-05T01:07:15.082Z,-1.90
2019-02-05T01:09:43.584Z,-1.90
2019-02-05T01:12:12.162Z,-2.00
2019-02-05T01:14:40.681Z,-2.00
2019-02-05T01:17:09.179Z,-2.10
2019-02-05T01:19:37.693Z,-2.10
2019-02-05T01:22:06.810Z,-2.00
2019-02-05T01:24:35.597Z,-2.10
2019-02-05T01:27:04.373Z,-2.10
2019-02-05T01:29:33.161Z,-2.10
2019-02-05T01:32:01.844Z,-2.10
2019-02-05T01:34:30.653Z,-2.10
2019-02-05T01:36:59.458Z,-2.30
2019-02-05T01:39:27.889Z,-2.30
2019-02-05T01:41:56.654Z,-2.30
2019-02-05T01:44:25.401Z,-2.30
2019-02-05T01:46:53.894Z,-2.30
2019-02-05T01:49:22.644Z,-2.30
2019-02-05T01:51:51.465Z,-2.30
2019-02-05T01:54:19.889Z,-2.40
2019-02-05T01:56:48.325Z,-2.40
2019-02-05T01:59:17.085Z,-2.40
2019-02-05T02:01:45.874Z,-2.30
2019-02-05T02:04:14.662Z,-2.30
2019-02-05T02:06:43.179Z,-2.40
2019-02-05T02:09:11.932Z,-2.40
2019-02-05T02:11:40.445Z,-2.40
2019-02-05T02:14:09.206Z,-2.40
2019-02-05T02:16:37.994Z,-2.40
2019-02-05T02:19:06.777Z,-2.40
2019-02-05T02:21:35.605Z,-2.40
2019-02-05T02:24:04.878Z,-2.50
2019-02-05T02:26:33.657Z,-2.50
2019-02-05T02:29:02.449Z,-2.50
2019-02-05T02:31:30.957Z,-2.50
2019-02-05T02:33:59.726Z,-2.60
2019-02-05T02:36:28.237Z,-2.60
2019-02-05T02:38:56.658Z,-2.60
2019-02-05T02:41:25.101Z,-2.70
2019-02-05T02:43:53.526Z,-2.60
2019-02-05T02:46:22.336Z,-2.50
2019-02-05T02:48:51.922Z,-2.60
2019-02-05T02:51:20.441Z,-2.50
2019-02-05T02:53:49.234Z,-2.40
2019-02-05T02:56:17.866Z,-2.40
2019-02-05T02:58:46.349Z,-2.50
2019-02-05T03:01:14.800Z,-2.50
2019-02-05T03:03:43.298Z,-2.60
2019-02-05T03:06:11.886Z,-2.60
2019-02-05T03:08:40.376Z,-2.60
2019-02-05T03:11:08.890Z,-2.60
2019-02-05T03:13:37.597Z,-2.70
2019-02-05T03:16:06.093Z,-2.70
2019-02-05T03:18:34.608Z,-2.60
2019-02-05T03:21:03.529Z,-2.60
2019-02-05T03:23:31.970Z,-2.60
2019-02-05T03:26:00.472Z,-2.70
2019-02-05T03:28:29.197Z,-2.60
2019-02-05T03:30:57.623Z,-2.60
2019-02-05T03:33:26.071Z,-2.60
2019-02-05T03:35:54.955Z,-2.50
2019-02-05T03:38:23.470Z,-2.50
2019-02-05T03:41:00.486Z,-2.40
2019-02-05T03:43:28.926Z,-2.30
2019-02-05T03:45:58.366Z,-2.30
2019-02-05T03:48:27.421Z,-2.20
2019-02-05T03:50:58.930Z,-2.20
2019-02-05T03:53:30.789Z,-2.00
2019-02-05T03:56:18.917Z,-2.00
2019-02-05T03:58:59.829Z,-1.90
2019-02-05T04:02:00.074Z,-1.90
2019-02-05T04:04:40.450Z,-1.90
2019-02-05T04:07:24.238Z,-1.90
2019-02-05T04:10:15.154Z,-1.80
2019-02-05T04:12:52.846Z,-1.80
2019-02-05T04:15:26.985Z,-1.70
2019-02-05T04:17:58.507Z,-1.70
2019-02-05T04:20:55.861Z,-1.70
2019-02-05T04:23:46.690Z,-1.70
2019-02-05T04:26:20.722Z,-1.60
2019-02-05T04:29:22.335Z,-1.70
2019-02-05T04:32:11.226Z,-1.70
2019-02-05T04:35:15.475Z,-1.70
2019-02-05T04:37:49.688Z,-1.70
2019-02-05T04:40:21.297Z,-1.70
2019-02-05T04:42:58.909Z,-1.70
2019-02-05T04:45:48.877Z,-1.70
2019-02-05T04:48:56.032Z,-1.70
2019-02-05T04:51:33.657Z,-1.70
2019-02-05T04:54:08.401Z,-1.60
2019-02-05T04:56:42.618Z,-1.70
2019-02-05T04:59:20.085Z,-1.60
2019-02-05T05:02:12.650Z,-1.60
2019-02-05T05:05:08.267Z,-1.60
2019-02-05T05:07:55.025Z,-1.60
2019-02-05T05:10:23.464Z,-1.60
2019-02-05T05:12:51.893Z,-1.60
2019-02-05T05:15:20.409Z,-1.60
2019-02-05T05:17:49.194Z,-1.60
2019-02-05T05:20:17.985Z,-1.70
2019-02-05T05:22:47.397Z,-1.70
2019-02-05T05:25:16.005Z,-1.70
2019-02-05T05:27:44.761Z,-1.70
2019-02-05T05:30:15.935Z,-1.70
2019-02-05T05:32:44.798Z,-1.70
2019-02-05T05:35:13.465Z,-1.70
2019-02-05T05:37:42.270Z,-1.60
2019-02-05T05:40:11.681Z,-1.60
2019-02-05T05:42:40.273Z,-1.60
2019-02-05T05:45:13.562Z,-1.70
2019-02-05T05:47:42.457Z,-1.60
2019-02-05T05:50:13.806Z,-1.60
2019-02-05T05:52:42.388Z,-1.60
2019-02-05T05:55:11.594Z,-1.60
2019-02-05T05:57:40.100Z,-1.60
2019-02-05T06:00:12.739Z,-1.60
2019-02-05T06:02:41.262Z,-1.60
2019-02-05T06:05:10.225Z,-1.70
2019-02-05T06:07:38.678Z,-1.70
2019-02-05T06:10:10.563Z,-1.70
2019-02-05T06:12:39.005Z,-1.70
2019-02-05T06:15:10.268Z,-1.80
2019-02-05T06:17:38.865Z,-1.70
2019-02-05T06:20:13.309Z,-1.70
2019-02-05T06:22:41.753Z,-1.70
2019-02-05T06:25:10.802Z,-1.70
2019-02-05T06:27:39.710Z,-1.80
2019-02-05T06:30:16.529Z,-1.90
2019-02-05T06:32:45.421Z,-1.90
2019-02-05T06:35:15.809Z,-1.90
2019-02-05T06:37:44.753Z,-2.00
2019-02-05T06:40:16.637Z,-1.90
2019-02-05T06:42:45.084Z,-1.90
2019-02-05T06:45:15.514Z,-1.90
2019-02-05T06:47:44.368Z,-1.90
2019-02-05T06:50:13.841Z,-1.90
2019-02-05T06:52:42.457Z,-1.90
2019-02-05T06:55:13.841Z,-1.80
2019-02-05T06:57:42.731Z,-1.90
2019-02-05T07:00:19.968Z,-1.80
2019-02-05T07:02:48.483Z,-1.90
2019-02-05T07:05:17.570Z,-1.90
2019-02-05T07:07:46.407Z,-1.90
2019-02-05T07:10:18.413Z,-1.90
2019-02-05T07:12:47.355Z,-1.90
2019-02-05T07:15:16.229Z,-1.80
2019-02-05T07:17:49.961Z,-1.80
2019-02-05T07:20:16.673Z,-1.90
2019-02-05T07:22:45.977Z,-1.80
2019-02-05T07:25:19.253Z,-1.90
2019-02-05T07:27:48.017Z,-1.90
2019-02-05T07:30:26.949Z,-1.80
2019-02-05T07:32:55.589Z,-1.70
2019-02-05T07:35:24.581Z,-1.70
2019-02-05T07:37:53.150Z,-1.70
2019-02-05T07:40:23.553Z,-1.70
2019-02-05T07:42:52.053Z,-1.60
2019-02-05T07:45:24.143Z,-1.60
2019-02-05T07:47:52.911Z,-1.50
2019-02-05T07:50:28.502Z,-1.60
2019-02-05T07:52:56.966Z,-1.50
2019-02-05T07:55:25.856Z,-1.40
2019-02-05T07:57:54.721Z,-1.30
2019-02-05T08:00:26.052Z,-1.30
2019-02-05T08:02:54.857Z,-1.30
2019-02-05T08:05:26.447Z,-1.30
2019-02-05T08:07:55.509Z,-1.20
2019-02-05T08:10:24.088Z,-1.10
2019-02-05T08:12:53.081Z,-1.00
2019-02-05T08:15:24.738Z,-0.80
2019-02-05T08:17:53.629Z,-0.90
2019-02-05T08:20:22.387Z,-0.90
2019-02-05T08:22:50.964Z,-0.90
2019-02-05T08:25:19.481Z,-0.90
2019-02-05T08:27:48.054Z,-0.80
2019-02-05T08:30:19.385Z,-0.80
2019-02-05T08:32:47.889Z,-0.70
2019-02-05T08:35:17.849Z,-0.70
2019-02-05T08:37:46.602Z,-0.70
2019-02-05T08:40:20.516Z,-0.60
2019-02-05T08:42:49.511Z,-0.50
2019-02-05T08:45:27.103Z,-0.50
2019-02-05T08:47:56.094Z,-0.50
2019-02-05T08:50:29.431Z,-0.40
2019-02-05T08:52:58.386Z,-0.40
2019-02-05T08:55:26.910Z,-0.30
2019-02-05T08:57:58.221Z,-0.30
2019-02-05T09:00:30.279Z,-0.20
2019-02-05T09:02:58.922Z,-0.30
2019-02-05T09:05:27.518Z,-0.30
2019-02-05T09:07:56.086Z,-0.20
2019-02-05T09:10:27.674Z,-0.10
2019-02-05T09:12:56.440Z,0.10
2019-02-05T09:15:29.562Z,0.00
2019-02-05T09:17:56.698Z,0.10
2019-02-05T09:20:25.549Z,0.00
2019-02-05T09:22:54.418Z,0.00
2019-02-05T09:25:23.094Z,0.20
2019-02-05T09:27:52.075Z,0.10
2019-02-05T09:30:22.933Z,0.20
2019-02-05T09:32:54.427Z,0.40
2019-02-05T09:35:23.007Z,0.40
2019-02-05T09:37:51.505Z,0.30
2019-02-05T09:40:26.357Z,0.40
2019-02-05T09:42:54.853Z,0.50
2019-02-05T09:45:24.405Z,0.40
2019-02-05T09:47:53.345Z,0.40
2019-02-05T09:50:22.001Z,0.50
2019-02-05T09:52:50.499Z,0.60
2019-02-05T09:55:22.374Z,0.60
2019-02-05T09:57:51.177Z,0.60
2019-02-05T10:00:31.521Z,0.60
2019-02-05T10:03:00.823Z,0.70
2019-02-05T10:05:34.219Z,0.80
2019-02-05T10:08:02.716Z,0.80
2019-02-05T10:10:31.397Z,0.80
2019-02-05T10:13:00.054Z,0.80
2019-02-05T10:15:33.741Z,0.90
2019-02-05T10:18:02.573Z,0.90
2019-02-05T10:20:31.085Z,1.00
2019-02-05T10:23:02.145Z,1.00
2019-02-05T10:25:30.657Z,1.10
2019-02-05T10:27:59.493Z,1.10
2019-02-05T10:30:30.803Z,1.10
2019-02-05T10:32:59.861Z,1.20
2019-02-05T10:35:28.636Z,1.10
2019-02-05T10:37:57.305Z,1.20
2019-02-05T10:40:26.609Z,1.30
2019-02-05T10:42:55.125Z,1.30
2019-02-05T10:45:26.001Z,1.30
2019-02-05T10:47:54.953Z,1.40
2019-02-05T10:50:23.817Z,1.70
2019-02-05T10:52:52.724Z,1.70
2019-02-05T10:55:24.959Z,1.70
2019-02-05T10:57:55.583Z,1.80
2019-02-05T11:00:29.548Z,1.90
2019-02-05T11:03:00.034Z,2.10
2019-02-05T11:05:29.772Z,2.00
2019-02-05T11:07:58.714Z,2.10
2019-02-05T11:10:27.379Z,2.20
2019-02-05T11:12:56.071Z,2.20
2019-02-05T11:15:27.268Z,2.20
2019-02-05T11:17:55.949Z,2.40
2019-02-05T11:20:26.285Z,2.50
2019-02-05T11:22:56.515Z,2.70
2019-02-05T11:25:25.280Z,2.90
2019-02-05T11:27:53.917Z,2.90
2019-02-05T11:30:39.652Z,2.90
2019-02-05T11:33:08.644Z,3.00
2019-02-05T11:35:37.512Z,2.80
2019-02-05T11:38:07.085Z,2.50
2019-02-05T11:40:37.825Z,2.50
2019-02-05T11:43:06.419Z,2.70
2019-02-05T11:45:35.049Z,3.10
2019-02-05T11:48:08.801Z,3.10
2019-02-05T11:50:37.818Z,3.20
2019-02-05T11:53:06.818Z,3.30
2019-02-05T11:55:36.238Z,3.20
2019-02-05T11:58:05.372Z,3.20
2019-02-05T12:00:51.170Z,3.10
2019-02-05T12:03:20.059Z,3.00
2019-02-05T12:05:48.886Z,3.20
2019-02-05T12:08:18.677Z,3.60
2019-02-05T12:10:47.540Z,3.90
2019-02-05T12:13:16.057Z,3.90
2019-02-05T12:15:45.082Z,4.00
2019-02-05T12:18:14.264Z,3.90
2019-02-05T12:20:43.358Z,3.50
2019-02-05T12:23:11.869Z,3.50
2019-02-05T12:25:40.622Z,3.60
2019-02-05T12:28:09.137Z,3.70
2019-02-05T12:30:45.709Z,3.90
2019-02-05T12:33:12.526Z,3.80
2019-02-05T12:35:41.309Z,3.90
2019-02-05T12:38:10.089Z,3.80
2019-02-05T12:40:38.584Z,3.80
2019-02-05T12:43:07.097Z,3.70
2019-02-05T12:45:39.585Z,3.60
2019-02-05T12:48:08.426Z,3.60
2019-02-05T12:50:38.890Z,3.70
2019-02-05T12:53:07.773Z,3.70
2019-02-05T12:55:36.420Z,3.70
2019-02-05T12:58:05.769Z,4.20
2019-02-05T13:00:37.284Z,4.20
2019-02-05T13:03:07.209Z,4.30
2019-02-05T13:05:35.772Z,4.40
2019-02-05T13:08:05.576Z,4.50
2019-02-05T13:10:39.566Z,4.40
2019-02-05T13:13:09.029Z,4.50
2019-02-05T13:15:37.700Z,4.40
2019-02-05T13:18:07.122Z,4.50
2019-02-05T13:20:35.979Z,4.40
2019-02-05T13:23:05.744Z,4.30
2019-02-05T13:25:35.194Z,4.20
2019-02-05T13:28:05.342Z,4.10
2019-02-05T13:30:35.648Z,4.10
2019-02-05T13:33:06.186Z,4.10
2019-02-05T13:35:35.385Z,4.10
2019-02-05T13:38:04.498Z,4.00
2019-02-05T13:40:33.285Z,3.90
2019-02-05T13:43:01.783Z,3.80
2019-02-05T13:45:33.302Z,3.80
2019-02-05T13:48:01.974Z,3.90
2019-02-05T13:50:33.667Z,4.00
2019-02-05T13:53:02.870Z,4.10
2019-02-05T13:55:37.372Z,4.10
2019-02-05T13:58:06.167Z,4.00
2019-02-05T14:00:42.919Z,3.90
2019-02-05T14:03:12.153Z,3.90
2019-02-05T14:05:40.829Z,4.00
2019-02-05T14:08:09.497Z,4.40
2019-02-05T14:10:40.854Z,4.90
2019-02-05T14:13:09.642Z,5.20
2019-02-05T14:15:46.950Z,5.30
2019-02-05T14:18:15.373Z,5.30
2019-02-05T14:20:44.107Z,5.20
2019-02-05T14:23:13.576Z,5.10
2019-02-05T14:25:42.391Z,5.20
2019-02-05T14:28:10.882Z,5.30
2019-02-05T14:30:51.130Z,4.40
2019-02-05T14:33:19.849Z,5.40
2019-02-05T14:35:48.524Z,5.40
2019-02-05T14:38:17.290Z,5.60
2019-02-05T14:40:45.726Z,5.60
2019-02-05T14:43:14.558Z,5.30
2019-02-05T14:45:43.369Z,5.00
2019-02-05T14:48:11.930Z,5.30
2019-02-05T14:50:43.186Z,5.70
2019-02-05T14:53:12.657Z,5.40
2019-02-05T14:55:41.169Z,5.30
2019-02-05T14:58:11.336Z,5.40
2019-02-05T15:00:40.312Z,5.20
2019-02-05T15:03:10.780Z,4.80
2019-02-05T15:05:40.152Z,4.60
2019-02-05T15:08:09.722Z,4.40
2019-02-05T15:10:38.414Z,4.50
2019-02-05T15:13:07.498Z,4.50
2019-02-05T15:15:36.009Z,4.40
2019-02-05T15:18:06.161Z,4.50
2019-02-05T15:20:40.289Z,4.60
2019-02-05T15:23:09.054Z,4.50
2019-02-05T15:25:37.631Z,4.40
2019-02-05T15:28:06.473Z,4.30
2019-02-05T15:30:37.248Z,4.10
2019-02-05T15:33:09.845Z,3.80
2019-02-05T15:35:40.004Z,3.70
2019-02-05T15:38:08.493Z,3.60
2019-02-05T15:40:37.466Z,3.40
2019-02-05T15:43:06.414Z,3.20
2019-02-05T15:45:35.281Z,2.90
2019-02-05T15:48:03.972Z,2.70
2019-02-05T15:50:32.766Z,2.40
2019-02-05T15:53:01.191Z,2.20
2019-02-05T15:55:29.625Z,2.10
2019-02-05T15:57:58.611Z,2.00
2019-02-05T16:00:29.041Z,2.00
2019-02-05T16:02:58.042Z,1.90
2019-02-05T16:05:28.007Z,1.80
2019-02-05T16:07:56.485Z,1.60
2019-02-05T16:10:26.555Z,1.50
2019-02-05T16:12:55.651Z,1.30
2019-02-05T16:15:24.436Z,1.20
2019-02-05T16:17:53.213Z,1.10
2019-02-05T16:20:22.615Z,1.10
2019-02-05T16:22:51.430Z,0.90
2019-02-05T16:25:20.209Z,0.80
2019-02-05T16:27:50.397Z,0.80
2019-02-05T16:30:24.438Z,0.70
2019-02-05T16:32:52.901Z,0.60
2019-02-05T16:35:21.506Z,0.60
2019-02-05T16:37:50.789Z,0.50
2019-02-05T16:40:34.573Z,0.50
2019-02-05T16:43:03.371Z,0.50
2019-02-05T16:45:32.739Z,0.40
2019-02-05T16:48:01.190Z,0.40
2019-02-05T16:50:38.573Z,0.30
2019-02-05T16:53:08.614Z,0.20
2019-02-05T16:55:37.160Z,0.20
2019-02-05T16:58:06.796Z,0.10
2019-02-05T17:00:36.456Z,0.10
2019-02-05T17:03:06.036Z,0.10
2019-02-05T17:05:37.162Z,0.10
2019-02-05T17:08:06.056Z,0.20
2019-02-05T17:10:34.718Z,0.10
2019-02-05T17:13:03.758Z,0.10
2019-02-05T17:15:32.199Z,0.00
2019-02-05T17:18:00.708Z,0.00
2019-02-05T17:20:33.497Z,0.00
2019-02-05T17:23:02.290Z,0.10
2019-02-05T17:25:30.783Z,0.00
2019-02-05T17:28:01.808Z,0.00
2019-02-05T17:30:36.022Z,0.00
2019-02-05T17:33:05.405Z,0.00
2019-02-05T17:35:35.444Z,0.00
2019-02-05T17:38:06.302Z,-0.10
2019-02-05T17:40:35.055Z,0.00
2019-02-05T17:43:03.868Z,0.10
2019-02-05T17:45:40.301Z,0.00
2019-02-05T17:48:11.853Z,0.10
2019-02-05T17:50:41.062Z,0.10
2019-02-05T17:53:09.721Z,0.10
2019-02-05T17:55:38.346Z,0.10
2019-02-05T17:58:07.672Z,0.10
2019-02-05T18:00:39.162Z,0.00
2019-02-05T18:03:07.674Z,-0.10
2019-02-05T18:05:36.770Z,-0.10
2019-02-05T18:08:05.743Z,-0.10
2019-02-05T18:10:36.970Z,-0.10
2019-02-05T18:13:08.562Z,-0.10
2019-02-05T18:15:39.293Z,0.00
2019-02-05T18:18:08.406Z,-0.10
2019-02-05T18:20:37.193Z,-0.10
2019-02-05T18:23:07.769Z,-0.10
2019-02-05T18:25:36.718Z,-0.20
2019-02-05T18:28:05.897Z,-0.10
2019-02-05T18:30:36.966Z,-0.10
2019-02-05T18:33:06.200Z,-0.20
2019-02-05T18:35:34.853Z,-0.20
2019-02-05T18:38:06.416Z,-0.30
2019-02-05T18:40:34.966Z,-0.30
2019-02-05T18:43:03.481Z,-0.30
2019-02-05T18:45:32.338Z,-0.40
2019-02-05T18:48:00.770Z,-0.40
2019-02-05T18:50:30.217Z,-0.50
2019-02-05T18:52:59.014Z,-0.50
2019-02-05T18:55:33.917Z,-0.60
2019-02-05T18:58:09.437Z,-0.60
2019-02-05T19:00:35.039Z,-0.70
2019-02-05T19:03:14.540Z,-0.80
2019-02-05T19:05:34.455Z,-0.80
2019-02-05T19:08:03.209Z,-0.80
2019-02-05T19:10:33.889Z,-0.80
2019-02-05T19:13:02.755Z,-0.90
2019-02-05T19:15:39.385Z,-0.80
2019-02-05T19:18:09.265Z,-0.80
2019-02-05T19:20:37.849Z,-0.80
2019-02-05T19:23:08.317Z,-0.80
2019-02-05T19:25:45.105Z,-0.90
2019-02-05T19:28:15.172Z,-1.00
2019-02-05T19:30:45.869Z,-1.00
2019-02-05T19:33:14.314Z,-1.00
2019-02-05T19:35:42.741Z,-1.00
2019-02-05T19:38:13.446Z,-1.10
2019-02-05T19:40:41.845Z,-1.10
2019-02-05T19:43:10.626Z,-1.10
2019-02-05T19:45:41.457Z,-1.10
2019-02-05T19:48:20.801Z,-1.20
2019-02-05T19:50:49.729Z,-1.20
2019-02-05T19:53:18.546Z,-1.20
2019-02-05T19:55:47.098Z,-1.30
2019-02-05T19:58:15.615Z,-1.30
2019-02-05T20:00:44.041Z,-1.30
2019-02-05T20:03:13.226Z,-1.30
2019-02-05T20:05:41.665Z,-1.20
2019-02-05T20:08:10.097Z,-1.30
2019-02-05T20:10:38.621Z,-1.30
2019-02-05T20:13:07.272Z,-1.30
2019-02-05T20:15:35.717Z,-1.40
2019-02-05T20:18:04.429Z,-1.40
2019-02-05T20:20:33.618Z,-1.40
2019-02-05T20:23:02.074Z,-1.50
2019-02-05T20:25:32.734Z,-1.50
2019-02-05T20:28:01.254Z,-1.50
2019-02-05T20:30:29.697Z,-1.40
2019-02-05T20:32:58.481Z,-1.40
2019-02-05T20:35:27.352Z,-1.50
2019-02-05T20:37:56.187Z,-1.50
2019-02-05T20:40:26.377Z,-1.50
2019-02-05T20:42:55.161Z,-1.50
2019-02-05T20:45:23.828Z,-1.50
2019-02-05T20:47:55.782Z,-1.50
2019-02-05T20:50:23.243Z,-1.60
2019-02-05T20:52:51.688Z,-1.60
2019-02-05T20:55:24.625Z,-1.60
2019-02-05T20:57:53.639Z,-1.70
2019-02-05T21:00:31.648Z,-1.70
2019-02-05T21:03:00.336Z,-1.60
2019-02-05T21:05:28.854Z,-1.50
2019-02-05T21:07:58.709Z,-1.60
2019-02-05T21:10:31.261Z,-1.60
2019-02-05T21:13:32.003Z,-1.70
2019-02-05T21:15:42.763Z,-1.70
2019-02-05T21:18:11.614Z,-1.60
2019-02-05T21:20:40.517Z,-1.60
2019-02-05T21:23:09.217Z,-1.60
2019-02-05T21:25:39.761Z,-1.50
2019-02-05T21:28:08.241Z,-1.60
2019-02-05T21:30:36.687Z,-1.70
2019-02-05T21:33:05.277Z,-1.80
2019-02-05T21:35:33.850Z,-1.90
2019-02-05T21:38:02.478Z,-1.90
2019-02-05T21:40:31.723Z,-1.80
2019-02-05T21:43:00.234Z,-1.90
2019-02-05T21:45:30.936Z,-1.90
2019-02-05T21:47:59.420Z,-1.80
2019-02-05T21:50:27.985Z,-1.80
2019-02-05T21:52:57.305Z,-1.80
2019-02-05T21:55:26.875Z,-1.90
2019-02-05T21:57:56.634Z,-1.90
2019-02-05T22:00:29.898Z,-1.80
2019-02-05T22:02:58.837Z,-1.80
2019-02-05T22:05:29.363Z,-0.60
2019-02-05T22:07:58.115Z,-1.80
2019-02-05T22:10:26.711Z,-1.90
2019-02-05T22:12:55.196Z,-2.00
2019-02-05T22:15:24.076Z,-2.00
2019-02-05T22:17:52.869Z,-2.00
2019-02-05T22:20:26.603Z,-2.00
2019-02-05T22:22:56.301Z,-1.90
2019-02-05T22:25:30.905Z,-1.80
2019-02-05T22:27:59.763Z,-1.80
2019-02-05T22:30:40.874Z,-1.80
2019-02-05T22:33:09.765Z,-1.70
2019-02-05T22:35:38.349Z,-1.70
2019-02-05T22:38:07.011Z,-1.60
2019-02-05T22:40:35.829Z,-1.60
2019-02-05T22:43:05.537Z,-1.60
2019-02-05T22:45:34.629Z,-1.60
2019-02-05T22:48:03.383Z,-1.60
2019-02-05T22:50:33.640Z,-1.50
2019-02-05T22:53:04.737Z,-1.60
2019-02-05T22:55:35.287Z,-1.60
2019-02-05T22:58:04.869Z,-1.60
2019-02-05T23:00:46.882Z,-1.60
2019-02-05T23:03:16.001Z,-1.50
2019-02-05T23:05:53.466Z,-1.50
2019-02-05T23:08:22.278Z,-1.50
2019-02-05T23:11:12.081Z,-1.60
2019-02-05T23:13:40.870Z,-1.60
2019-02-05T23:16:09.677Z,-1.60
2019-02-05T23:18:38.506Z,-1.60
2019-02-05T23:21:07.016Z,-1.60
2019-02-05T23:23:35.717Z,-1.60
2019-02-05T23:26:05.733Z,-1.60
2019-02-05T23:28:34.628Z,-1.50
2019-02-05T23:31:03.421Z,-1.60
2019-02-05T23:33:32.202Z,-1.60
2019-02-05T23:36:00.625Z,-1.60
2019-02-05T23:38:30.145Z,-1.60
2019-02-05T23:40:58.689Z,-1.70
2019-02-05T23:43:27.869Z,-1.70
2019-02-05T23:46:01.271Z,-1.70
2019-02-05T23:48:26.465Z,-1.70
2019-02-05T23:50:54.973Z,-1.70
2019-02-05T23:53:23.414Z,-1.80
2019-02-05T23:55:51.846Z,-1.70
2019-02-05T23:58:20.293Z,-1.70
